Time;durP1;ratioP1;P1;durP2;ratioP2;P2;SDS_P1;SDS_P2;PMS_P1;PMS_P2;Temp;Humidity;BMP_temperature;BMP_pressure;BME280_temperature;BME280_humidity;BME280_pressure;Samples;Min_cycle;Max_cycle;Signal;HPM_P1;HPM_P2
2022/06/25 00:01:52;;;;;;;6.37;3.90;;;;;;;19.78;54.43;99760.59;4198149;28;20289;-67
2022/06/25 00:07:04;;;;;;;7.07;4.00;;;;;;;19.76;54.44;99757.31;4208095;28;20300;-67
2022/06/25 00:09:31;;;;;;;6.27;3.93;;;;;;;19.74;54.63;99758.56;4200433;28;20312;-66
2022/06/25 00:14:43;;;;;;;8.93;3.77;;;;;;;19.77;54.74;99758.94;4212546;28;20541;-66
2022/06/25 00:17:09;;;;;;;9.90;3.67;;;;;;;19.72;54.78;99760.66;4216424;28;20342;-67
2022/06/25 00:19:36;;;;;;;5.73;3.43;;;;;;;19.70;54.90;99758.19;4198421;28;20329;-66
2022/06/25 00:22:03;;;;;;;7.73;3.60;;;;;;;19.72;54.73;99760.66;4202664;28;20340;-67
2022/06/25 00:24:29;;;;;;;9.00;3.97;;;;;;;19.75;54.62;99755.63;4190646;28;20723;-67
2022/06/25 00:26:56;;;;;;;9.30;3.93;;;;;;;19.75;54.34;99755.63;4217768;28;20277;-66
2022/06/25 00:29:22;;;;;;;7.03;3.40;;;;;;;19.72;54.64;99752.56;4210835;28;20260;-66
2022/06/25 00:31:49;;;;;;;6.43;3.67;;;;;;;19.69;54.63;99759.25;4211028;28;20232;-67
2022/06/25 00:34:16;;;;;;;9.77;3.90;;;;;;;19.70;54.60;99747.38;4201267;28;22352;-67
2022/06/25 00:36:42;;;;;;;6.30;3.70;;;;;;;19.77;54.83;99750.84;4211391;28;20291;-66
2022/06/25 00:39:09;;;;;;;7.60;3.60;;;;;;;19.74;54.58;99756.69;4195662;28;20239;-66
2022/06/25 00:41:36;;;;;;;8.20;3.80;;;;;;;19.72;54.77;99752.56;4181665;28;20406;-66
2022/06/25 00:44:07;;;;;;;5.73;3.90;;;;;;;19.73;54.71;99751.50;4201704;28;23529;-66
2022/06/25 00:46:34;;;;;;;10.33;3.97;;;;;;;19.66;54.94;99753.41;4206923;28;22893;-67
2022/06/25 00:49:02;;;;;;;7.03;4.20;;;;;;;19.56;55.19;99749.34;4210919;28;20632;-68
2022/06/25 00:51:31;;;;;;;8.57;3.70;;;;;;;19.58;55.16;99749.13;4198975;28;21271;-67
2022/06/25 00:54:04;;;;;;;6.53;4.10;;;;;;;19.57;54.99;99751.00;4197812;28;20240;-67
2022/06/25 00:56:33;;;;;;;9.23;3.77;;;;;;;19.46;55.60;99750.91;4196183;28;21673;-66
2022/06/25 00:59:03;;;;;;;9.77;3.83;;;;;;;19.47;55.71;99752.53;4206658;28;20782;-67
2022/06/25 01:01:32;;;;;;;6.63;3.80;;;;;;;19.45;55.74;99754.63;4200690;28;26522;-69
2022/06/25 01:04:00;;;;;;;6.67;3.70;;;;;;;19.49;55.39;99748.56;4225108;28;20233;-67
2022/06/25 01:06:28;;;;;;;9.93;3.70;;;;;;;19.42;55.98;99746.97;4222505;28;21575;-66
2022/06/25 01:08:58;;;;;;;5.97;3.97;;;;;;;19.31;56.09;99748.50;4208340;28;20237;-67
2022/06/25 01:11:25;;;;;;;6.60;3.93;;;;;;;19.25;56.28;99746.69;4204734;28;20473;-66
2022/06/25 01:13:52;;;;;;;6.70;3.63;;;;;;;19.27;56.35;99752.66;4209418;28;21762;-67
2022/06/25 01:16:21;;;;;;;7.17;4.10;;;;;;;19.21;56.25;99745.47;4203906;28;20245;-66
2022/06/25 01:18:49;;;;;;;7.93;3.93;;;;;;;19.18;56.73;99749.44;4228565;28;20292;-66
2022/06/25 01:21:15;;;;;;;5.33;3.20;;;;;;;19.19;55.92;99751.91;4213578;28;20242;-65
2022/06/25 01:23:42;;;;;;;11.40;4.00;;;;;;;19.16;56.60;99744.25;4214086;28;20342;-65
2022/06/25 01:26:09;;;;;;;7.43;3.40;;;;;;;19.12;56.51;99745.72;4203648;28;21570;-67
2022/06/25 01:28:35;;;;;;;11.40;3.80;;;;;;;19.13;56.37;99743.88;4210830;28;20236;-66
2022/06/25 01:31:02;;;;;;;7.53;4.17;;;;;;;19.10;56.47;99734.31;4214283;28;20557;-65
2022/06/25 01:33:29;;;;;;;7.57;3.67;;;;;;;19.11;56.49;99735.16;4201999;28;20716;-68
2022/06/25 01:35:56;;;;;;;7.07;3.73;;;;;;;19.13;56.55;99746.56;4221860;28;20243;-66
2022/06/25 01:38:22;;;;;;;5.57;4.23;;;;;;;19.02;57.01;99741.88;4218212;28;20290;-67
2022/06/25 01:40:49;;;;;;;7.77;4.00;;;;;;;18.88;57.88;99733.84;4208191;28;20297;-67
2022/06/25 01:43:16;;;;;;;7.60;4.00;;;;;;;18.82;58.17;99734.69;4215080;28;20347;-66
2022/06/25 01:45:42;;;;;;;6.17;4.10;;;;;;;18.80;58.51;99736.81;4226546;28;20343;-66
2022/06/25 01:48:09;;;;;;;11.60;4.10;;;;;;;18.76;58.34;99735.56;4213945;28;20323;-66
2022/06/25 01:50:36;;;;;;;10.60;4.27;;;;;;;18.68;58.88;99739.34;4205138;28;20236;-45
2022/06/25 01:53:04;;;;;;;6.37;3.97;;;;;;;18.76;58.94;99736.41;4208127;28;21292;-44
2022/06/25 01:55:32;;;;;;;11.13;4.20;;;;;;;18.82;58.62;99742.78;4217272;28;20317;-45
2022/06/25 01:57:59;;;;;;;6.67;3.50;;;;;;;18.81;59.05;99743.84;4222378;28;22898;-43
2022/06/25 02:00:29;;;;;;;9.47;3.90;;;;;;;18.84;58.49;99748.78;4202787;28;20230;-45
2022/06/25 02:02:56;;;;;;;7.40;3.53;;;;;;;18.90;58.38;99753.34;4197414;28;20290;-44
2022/06/25 02:08:13;;;;;;;7.03;3.90;;;;;;;18.87;57.81;99751.09;4199555;28;20257;-44
2022/06/25 02:10:40;;;;;;;6.63;3.67;;;;;;;18.98;57.49;99761.16;4221148;28;20228;-44
2022/06/25 02:13:07;;;;;;;10.80;3.60;;;;;;;18.98;56.95;99750.38;4211668;28;20240;-43
2022/06/25 02:15:34;;;;;;;5.73;3.40;;;;;;;18.95;57.40;99753.50;4205066;28;20275;-44
2022/06/25 02:18:01;;;;;;;5.90;3.47;;;;;;;18.97;57.69;99753.31;4206947;28;20231;-47
2022/06/25 02:20:28;;;;;;;6.50;3.33;;;;;;;18.94;57.83;99759.97;4250835;28;20231;-44
2022/06/25 02:22:54;;;;;;;6.03;3.30;;;;;;;19.09;57.14;99756.13;4244485;28;20527;-44
2022/06/25 02:25:21;;;;;;;7.07;3.03;;;;;;;19.08;56.92;99758.00;4232504;28;20361;-44
2022/06/25 02:27:48;;;;;;;8.27;3.57;;;;;;;19.02;57.31;99758.88;4261180;28;20238;-43
2022/06/25 02:30:15;;;;;;;7.30;3.60;;;;;;;19.09;56.88;99756.94;4271453;28;20236;-45
2022/06/25 02:32:42;;;;;;;6.60;3.90;;;;;;;19.06;57.22;99759.25;4289725;28;20236;-44
2022/06/25 02:35:08;;;;;;;5.13;3.10;;;;;;;19.03;57.34;99759.69;4250167;28;20251;-45
2022/06/25 02:37:35;;;;;;;5.97;3.67;;;;;;;19.07;57.10;99763.59;4262715;28;21654;-43
2022/06/25 02:40:03;;;;;;;6.17;3.70;;;;;;;19.04;57.36;99766.75;4259610;28;20501;-66
2022/06/25 02:42:40;;;;;;;7.70;3.43;;;;;;;18.93;57.65;99763.69;4227021;28;21158;-66
2022/06/25 02:45:08;;;;;;;5.73;3.60;;;;;;;18.93;57.52;99771.78;4216626;28;20244;-65
2022/06/25 02:47:35;;;;;;;8.17;3.33;;;;;;;18.94;57.66;99768.03;4203882;28;20629;-65
2022/06/25 02:50:03;;;;;;;8.50;3.60;;;;;;;18.92;57.67;99756.66;4234884;28;21178;-65
2022/06/25 02:52:29;;;;;;;6.63;3.60;;;;;;;18.94;57.73;99761.81;4214682;28;26094;-66
2022/06/25 02:54:56;;;;;;;10.73;3.33;;;;;;;18.94;57.82;99756.41;4225565;28;20575;-65
2022/06/25 03:00:09;;;;;;;4.40;3.50;;;;;;;18.93;57.83;99760.97;4214526;28;20245;-65
2022/06/25 03:02:35;;;;;;;5.17;3.27;;;;;;;18.91;58.20;99754.16;4221460;28;20827;-66
2022/06/25 03:05:03;;;;;;;6.97;3.50;;;;;;;18.83;58.65;99757.94;4220221;28;20236;-66
2022/06/25 03:07:30;;;;;;;6.03;3.50;;;;;;;18.81;58.58;99751.13;4222632;28;21724;-65
2022/06/25 03:09:57;;;;;;;6.50;3.23;;;;;;;18.89;58.48;99757.06;4213735;28;23176;-68
2022/06/25 03:12:24;;;;;;;9.63;3.63;;;;;;;18.90;58.35;99756.03;4218172;28;20711;-66
2022/06/25 03:14:50;;;;;;;6.67;3.30;;;;;;;18.87;58.56;99759.16;4215316;28;20236;-64
2022/06/25 03:17:17;;;;;;;7.60;3.30;;;;;;;18.86;58.54;99752.09;4210358;28;20288;-65
2022/06/25 03:19:44;;;;;;;8.90;3.30;;;;;;;18.91;58.53;99754.97;4215098;28;20324;-66
2022/06/25 03:22:10;;;;;;;6.33;3.70;;;;;;;18.93;58.29;99746.69;4227918;28;20275;-66
2022/06/25 03:24:37;;;;;;;5.40;3.37;;;;;;;18.98;58.25;99758.47;4210185;28;20757;-64
2022/06/25 03:27:05;;;;;;;8.43;3.53;;;;;;;19.00;58.75;99757.44;4214363;28;20787;-65
2022/06/25 03:29:31;;;;;;;6.40;3.60;;;;;;;19.00;58.57;99762.81;4220973;28;21772;-66
2022/06/25 03:31:58;;;;;;;7.13;3.27;;;;;;;19.07;58.58;99763.59;4222099;28;20480;-66
2022/06/25 03:34:24;;;;;;;7.20;3.37;;;;;;;19.11;58.12;99764.84;4213954;28;20343;-64
2022/06/25 03:36:51;;;;;;;5.47;3.37;;;;;;;19.15;58.14;99772.28;4203063;28;20439;-64
2022/06/25 03:39:18;;;;;;;7.13;3.40;;;;;;;19.20;57.99;99768.94;4210823;28;20236;-63
2022/06/25 03:41:44;;;;;;;6.57;3.70;;;;;;;19.25;57.85;99766.41;4221390;28;20240;-67
2022/06/25 03:44:11;;;;;;;6.47;3.70;;;;;;;19.26;58.09;99773.44;4215589;28;23476;-65
2022/06/25 03:46:39;;;;;;;4.13;3.10;;;;;;;19.39;57.56;99773.34;4205754;28;21642;-65
2022/06/25 03:49:06;;;;;;;11.03;3.60;;;;;;;19.42;57.54;99776.66;4206983;28;20333;-66
2022/06/25 03:51:34;;;;;;;9.00;3.80;;;;;;;19.40;57.82;99780.38;4221426;28;20240;-65
2022/06/25 03:54:00;;;;;;;7.40;3.20;;;;;;;19.47;57.44;99777.63;4210229;28;20598;-65
2022/06/25 03:56:27;;;;;;;6.70;3.20;;;;;;;19.49;57.60;99778.25;4212839;28;20240;-64
2022/06/25 03:58:54;;;;;;;5.13;3.23;;;;;;;19.60;57.05;99791.03;4213139;28;20687;-65
2022/06/25 04:01:23;;;;;;;5.10;3.20;;;;;;;19.75;57.15;99781.81;4185207;28;20234;-68
2022/06/25 04:03:50;;;;;;;5.60;3.67;;;;;;;19.84;56.25;99785.88;4193854;28;20238;-66
2022/06/25 04:06:16;;;;;;;6.87;3.47;;;;;;;20.01;55.44;99795.06;4190694;28;20234;-65
2022/06/25 04:08:43;;;;;;;4.67;2.87;;;;;;;20.07;55.72;99796.06;4195779;28;24167;-68
2022/06/25 04:11:09;;;;;;;7.50;3.30;;;;;;;20.17;55.02;99803.66;4195258;28;21159;-65
2022/06/25 04:13:36;;;;;;;4.53;3.07;;;;;;;20.28;55.08;99802.91;4199101;28;20993;-65
2022/06/25 04:16:03;;;;;;;6.23;3.33;;;;;;;20.37;54.29;99806.13;4206432;28;20248;-65
2022/06/25 04:18:31;;;;;;;7.20;3.43;;;;;;;20.31;54.70;99805.16;4200763;28;20253;-64
2022/06/25 04:20:59;;;;;;;9.47;3.30;;;;;;;20.38;54.63;99802.38;4186380;28;20742;-65
2022/06/25 04:23:26;;;;;;;6.73;3.77;;;;;;;20.41;54.78;99804.63;4184379;28;21761;-67
2022/06/25 04:25:53;;;;;;;8.60;3.33;;;;;;;20.43;54.61;99810.63;4189297;28;22469;-65
2022/06/25 04:31:05;;;;;;;6.90;3.67;;;;;;;20.69;53.39;99814.13;4183030;28;20306;-66
2022/06/25 04:33:32;;;;;;;4.70;3.60;;;;;;;20.69;53.55;99814.13;4182548;28;20241;-64
2022/06/25 04:35:59;;;;;;;7.57;3.63;;;;;;;20.76;53.14;99810.28;4174780;28;20778;-65
2022/06/25 04:38:26;;;;;;;8.63;3.67;;;;;;;20.88;52.97;99821.16;4184917;28;20237;-64
2022/06/25 04:40:52;;;;;;;9.47;3.40;;;;;;;20.95;52.78;99813.78;4216118;28;20237;-65
2022/06/25 04:43:19;;;;;;;11.17;3.67;;;;;;;21.07;52.37;99814.66;4199381;28;20322;-66
2022/06/25 04:45:45;;;;;;;8.70;3.37;;;;;;;21.05;52.35;99814.06;4205260;28;20245;-66
2022/06/25 04:48:12;;;;;;;6.03;3.60;;;;;;;21.10;52.46;99812.56;4198806;28;20242;-67
2022/06/25 04:50:44;;;;;;;6.67;3.90;;;;;;;21.27;51.65;99821.69;4195131;28;20232;-65
2022/06/25 04:53:12;;;;;;;6.80;3.47;;;;;;;21.37;51.95;99823.81;4201580;28;22215;-65
2022/06/25 04:55:39;;;;;;;5.80;3.50;;;;;;;21.42;51.07;99822.13;4185200;28;20229;-67
2022/06/25 04:58:05;;;;;;;11.70;3.40;;;;;;;21.41;50.70;99823.16;4191537;28;20485;-66
2022/06/25 05:00:32;;;;;;;6.53;3.93;;;;;;;21.50;50.49;99821.78;4198996;28;20238;-65
2022/06/25 05:03:07;;;;;;;9.37;3.63;;;;;;;21.61;50.64;99828.28;4177947;28;20408;-66
2022/06/25 05:05:33;;;;;;;7.73;3.70;;;;;;;21.58;50.58;99828.72;4197661;28;20326;-64
2022/06/25 05:08:00;;;;;;;7.47;3.13;;;;;;;21.63;50.42;99830.75;4209735;28;20657;-67
2022/06/25 05:10:27;;;;;;;5.60;3.73;;;;;;;21.78;49.82;99827.59;4184919;28;20272;-66
2022/06/25 05:13:12;;;;;;;4.10;3.17;;;;;;;21.92;49.86;99835.25;4194137;28;20232;-65
2022/06/25 05:15:42;;;;;;;8.03;3.53;;;;;;;22.00;48.89;99836.78;4196167;28;20248;-65
2022/06/25 05:18:10;;;;;;;4.83;3.13;;;;;;;22.27;48.90;99842.63;4201878;28;22954;-66
2022/06/25 05:20:41;;;;;;;8.50;3.30;;;;;;;22.60;47.53;99852.00;4188224;28;21256;-65
2022/06/25 05:23:08;;;;;;;5.63;3.23;;;;;;;22.80;46.56;99850.78;4179769;28;20268;-65
2022/06/25 05:25:35;;;;;;;5.97;3.00;;;;;;;23.29;45.50;99860.19;4197727;28;20241;-68
2022/06/25 05:28:02;;;;;;;5.77;3.27;;;;;;;23.52;44.20;99859.25;4203081;28;20808;-65
2022/06/25 05:30:29;;;;;;;8.00;3.40;;;;;;;23.94;42.56;99866.25;4199385;28;20296;-67
2022/06/25 05:32:56;;;;;;;9.93;3.33;;;;;;;24.40;41.12;99862.34;4190368;28;20250;-65
2022/06/25 05:35:23;;;;;;;7.27;3.00;;;;;;;24.98;39.61;99871.03;4194862;28;21359;-65
2022/06/25 05:37:49;;;;;;;5.83;3.40;;;;;;;25.00;39.50;99868.84;4188620;28;20244;-65
2022/06/25 05:40:16;;;;;;;7.83;3.27;;;;;;;25.33;38.21;99871.69;4175998;28;20444;-66
2022/06/25 05:42:43;;;;;;;8.33;3.20;;;;;;;25.86;38.21;99878.19;4192677;28;20615;-67
2022/06/25 05:45:09;;;;;;;6.93;3.27;;;;;;;26.60;36.03;99877.41;4205357;28;20318;-66
2022/06/25 05:47:36;;;;;;;4.10;2.93;;;;;;;26.86;35.51;99883.81;4185495;28;20275;-65
2022/06/25 05:50:04;;;;;;;7.17;3.13;;;;;;;27.61;35.05;99879.97;4181330;28;20244;-66
2022/06/25 05:52:31;;;;;;;6.03;3.20;;;;;;;28.22;32.38;99887.38;4190509;28;20226;-65
2022/06/25 05:54:57;;;;;;;8.73;3.20;;;;;;;28.53;31.87;99886.25;4206795;28;20328;-66
2022/06/25 05:57:24;;;;;;;10.67;3.27;;;;;;;28.67;31.43;99883.72;4200359;28;20294;-66
2022/06/25 05:59:51;;;;;;;6.13;3.00;;;;;;;29.48;30.74;99897.34;4201987;28;20230;-67
2022/06/25 06:02:17;;;;;;;6.00;2.58;;;;;;;29.76;29.36;99896.66;4183743;28;21243;-65
2022/06/25 06:04:45;;;;;;;6.68;3.28;;;;;;;30.54;28.54;99907.78;4196720;28;21320;-66
2022/06/25 06:07:11;;;;;;;7.32;2.67;;;;;;;31.07;28.02;99903.06;4182571;28;20437;-66
2022/06/25 06:09:39;;;;;;;4.25;3.25;;;;;;;31.55;26.38;99905.72;4188860;28;23215;-67
2022/06/25 06:12:06;;;;;;;6.13;3.15;;;;;;;32.20;25.12;99911.63;4198428;28;21123;-64
2022/06/25 06:14:33;;;;;;;5.65;3.33;;;;;;;32.82;24.68;99914.06;4197276;28;20246;-66
2022/06/25 06:16:59;;;;;;;8.45;2.70;;;;;;;33.00;24.36;99916.69;4201468;28;20640;-64
2022/06/25 06:19:26;;;;;;;7.05;2.92;;;;;;;32.64;24.11;99913.84;4210448;28;21397;-69
2022/06/25 06:21:53;;;;;;;9.43;2.85;;;;;;;33.25;23.92;99919.25;4203756;28;25345;-67
2022/06/25 06:24:19;;;;;;;6.82;3.20;;;;;;;34.09;22.57;99927.00;4201743;28;20237;-68
2022/06/25 06:26:46;;;;;;;6.00;2.70;;;;;;;34.54;22.60;99923.34;4206134;28;20234;-67
2022/06/25 06:29:12;;;;;;;9.15;3.30;;;;;;;34.95;22.41;99928.56;4195582;28;20788;-67
2022/06/25 06:31:39;;;;;;;6.13;2.95;;;;;;;35.05;21.63;99928.28;4202519;28;20238;-72
2022/06/25 06:34:06;;;;;;;6.43;3.30;;;;;;;35.22;21.01;99938.59;4193317;28;20600;-68
2022/06/25 06:36:33;;;;;;;7.07;3.63;;;;;;;35.62;20.75;99930.19;4199556;28;24739;-66
2022/06/25 06:38:59;;;;;;;6.85;2.75;;;;;;;36.52;19.79;99939.69;4214784;28;20550;-67
2022/06/25 06:41:26;;;;;;;6.20;3.03;;;;;;;37.02;18.61;99939.00;4232716;28;20244;-69
2022/06/25 06:43:53;;;;;;;5.25;2.95;;;;;;;36.77;19.05;99940.75;4197668;28;20344;-69
2022/06/25 06:46:20;;;;;;;4.95;2.50;;;;;;;37.12;18.55;99935.88;4182638;28;20231;-70
2022/06/25 06:48:47;;;;;;;7.47;2.80;;;;;;;36.98;18.09;99947.19;4215493;28;20962;-72
2022/06/25 06:51:13;;;;;;;4.50;2.60;;;;;;;37.21;17.34;99948.88;4218997;28;20232;-71
2022/06/25 06:53:40;;;;;;;3.30;2.50;;;;;;;37.03;17.53;99951.72;4187085;28;20256;-70
2022/06/25 06:56:07;;;;;;;7.85;2.50;;;;;;;37.22;17.42;99945.75;4191225;28;20243;-70
2022/06/25 06:58:34;;;;;;;3.08;2.35;;;;;;;38.11;17.40;99948.34;4221006;28;20304;-70
2022/06/25 07:01:00;;;;;;;6.15;2.80;;;;;;;38.73;16.55;99951.28;4235638;28;20630;-68
2022/06/25 07:03:28;;;;;;;8.45;3.00;;;;;;;36.58;18.04;99937.56;4219492;28;21629;-70
2022/06/25 07:05:55;;;;;;;10.68;2.80;;;;;;;37.04;18.05;99941.44;4206586;28;20240;-68
2022/06/25 07:08:22;;;;;;;6.57;2.60;;;;;;;37.58;17.39;99953.53;4213660;28;20241;-69
2022/06/25 07:10:48;;;;;;;7.22;2.40;;;;;;;37.37;16.61;99942.41;4232913;28;20856;-67
2022/06/25 07:13:15;;;;;;;5.75;2.10;;;;;;;36.89;16.59;99940.84;4222053;28;20269;-67
2022/06/25 07:15:42;;;;;;;4.07;2.20;;;;;;;36.07;18.17;99934.56;4235421;28;21271;-69
2022/06/25 07:18:09;;;;;;;5.07;2.22;;;;;;;35.70;18.69;99931.31;4228761;28;20240;-66
2022/06/25 07:20:35;;;;;;;3.50;2.60;;;;;;;35.06;18.69;99937.38;4195734;28;20232;-68
2022/06/25 07:23:02;;;;;;;3.65;2.40;;;;;;;33.10;20.74;99925.91;4212579;28;22556;-69
2022/06/25 07:25:29;;;;;;;5.25;2.25;;;;;;;32.71;21.58;99908.75;4209634;28;20247;-68
2022/06/25 07:27:56;;;;;;;3.33;2.20;;;;;;;32.04;23.15;99905.56;4232841;28;21816;-68
2022/06/25 07:30:24;;;;;;;4.32;2.70;;;;;;;31.75;23.38;99910.09;4217988;28;20377;-68
2022/06/25 07:32:50;;;;;;;3.83;2.30;;;;;;;31.31;23.78;99908.50;4226010;28;20325;-68
2022/06/25 07:35:17;;;;;;;4.95;2.28;;;;;;;31.19;23.74;99904.53;4207383;28;20622;-69
2022/06/25 07:37:44;;;;;;;4.20;2.35;;;;;;;30.95;24.15;99902.66;4219602;28;20235;-68
2022/06/25 07:40:22;;;;;;;5.88;2.70;;;;;;;30.47;24.48;99910.88;4217179;28;20276;-67
2022/06/25 07:42:48;;;;;;;3.22;2.58;;;;;;;30.63;24.96;99898.63;4230186;28;21239;-68
2022/06/25 07:45:15;;;;;;;6.10;2.40;;;;;;;30.59;24.69;99908.53;4228592;28;20360;-65
2022/06/25 07:47:42;;;;;;;7.80;3.00;;;;;;;30.49;24.28;99897.69;4272568;28;20342;-69
2022/06/25 07:53:06;;;;;;;4.72;2.42;;;;;;;30.90;25.01;99895.28;4269966;28;20324;-67
2022/06/25 07:55:33;;;;;;;3.90;2.47;;;;;;;30.33;25.28;99898.94;4221765;28;25089;-65
2022/06/25 07:57:59;;;;;;;3.20;2.53;;;;;;;30.14;26.17;99888.66;4270598;28;20286;-61
2022/06/25 08:00:26;;;;;;;5.55;2.35;;;;;;;30.37;25.89;99886.25;4280607;28;20235;-67
2022/06/25 08:02:53;;;;;;;9.38;2.45;;;;;;;30.45;24.87;99888.38;4304364;28;20237;-67
2022/06/25 08:05:19;;;;;;;8.57;2.97;;;;;;;30.82;24.54;99889.63;4241973;28;21336;-67
2022/06/25 08:07:46;;;;;;;3.30;2.47;;;;;;;30.50;25.11;99893.81;4253093;28;20236;-66
2022/06/25 08:10:13;;;;;;;5.55;2.10;;;;;;;30.74;24.86;99890.25;4228734;28;20246;-68
2022/06/25 08:12:40;;;;;;;5.20;2.25;;;;;;;30.25;23.80;99884.72;4273971;28;20527;-67
2022/06/25 08:15:07;;;;;;;6.75;2.45;;;;;;;29.59;24.11;99887.97;4277846;28;20241;-68
2022/06/25 08:17:34;;;;;;;6.40;2.47;;;;;;;28.84;25.19;99875.19;4231043;28;22038;-68
2022/06/25 08:20:02;;;;;;;8.05;2.63;;;;;;;29.28;25.50;99884.59;4258360;28;20246;-68
2022/06/25 08:22:29;;;;;;;6.18;2.33;;;;;;;29.33;24.90;99885.38;4238977;28;20235;-58
2022/06/25 08:24:56;;;;;;;6.15;2.00;;;;;;;29.25;24.03;99886.00;4237279;28;20238;-66
2022/06/25 08:27:23;;;;;;;10.25;2.33;;;;;;;28.89;24.74;99885.28;4282058;28;20346;-73
2022/06/25 08:29:50;;;;;;;5.47;2.22;;;;;;;28.90;26.26;99874.06;4259979;28;21155;-67
2022/06/25 08:32:16;;;;;;;6.15;2.28;;;;;;;29.03;25.50;99881.69;4233746;28;20331;-67
2022/06/25 08:34:43;;;;;;;5.05;2.40;;;;;;;28.94;26.71;99871.56;4253920;28;20761;-65
2022/06/25 08:37:10;;;;;;;9.93;2.28;;;;;;;29.00;25.81;99876.75;4235637;28;20256;-69
2022/06/25 08:39:36;;;;;;;5.43;2.40;;;;;;;29.06;25.68;99883.03;4232280;28;21158;-66
2022/06/25 08:42:05;;;;;;;3.03;2.13;;;;;;;28.67;25.91;99866.50;4206515;28;20270;-67
2022/06/25 08:44:32;;;;;;;7.68;2.22;;;;;;;28.60;27.36;99875.81;4246391;28;21198;-69
2022/06/25 08:46:59;;;;;;;5.10;2.40;;;;;;;28.60;27.07;99875.81;4228385;28;20952;-70
2022/06/25 08:49:26;;;;;;;4.87;2.40;;;;;;;28.50;28.05;99873.13;4229645;28;22106;-74
2022/06/25 08:51:54;;;;;;;6.18;2.47;;;;;;;28.67;26.93;99866.50;4216467;28;20239;-71
2022/06/25 08:54:22;;;;;;;4.73;2.10;;;;;;;28.29;27.39;99869.56;4231406;28;20233;-70
2022/06/25 08:56:49;;;;;;;7.10;2.20;;;;;;;28.38;28.40;99876.13;4209129;28;20266;-74
2022/06/25 08:59:16;;;;;;;4.28;2.00;;;;;;;28.39;27.63;99876.94;4231799;28;21121;-73
2022/06/25 09:01:44;;;;;;;7.68;2.15;;;;;;;28.42;26.66;99873.63;4205937;28;20445;-74
2022/06/25 09:04:11;;;;;;;8.25;2.22;;;;;;;28.56;28.36;99874.72;4235659;28;21170;-74
2022/06/25 09:06:39;;;;;;;6.55;2.45;;;;;;;29.00;28.51;99871.28;4234801;28;21636;-72
2022/06/25 09:09:15;;;;;;;4.30;2.20;;;;;;;28.90;26.11;99873.25;4218234;28;20356;-69
2022/06/25 09:11:57;;;;;;;2.97;2.30;;;;;;;28.25;27.12;99875.88;4222800;28;20318;-73
2022/06/25 09:14:26;;;;;;;5.00;2.20;;;;;;;28.31;28.13;99877.50;4229004;28;20895;-73
2022/06/25 09:17:04;;;;;;;6.38;2.20;;;;;;;28.20;27.67;99872.03;4207205;28;25098;-73
2022/06/25 09:19:51;;;;;;;2.47;2.13;;;;;;;27.75;28.03;99868.22;4222127;28;20243;-70
2022/06/25 09:22:20;;;;;;;3.58;1.92;;;;;;;28.08;28.97;99863.31;4204018;28;20351;-71
2022/06/25 09:24:49;;;;;;;5.18;2.47;;;;;;;28.24;28.93;99864.13;4248509;28;20447;-73
2022/06/25 09:27:33;;;;;;;4.57;2.30;;;;;;;28.15;27.64;99850.16;4217973;28;20233;-69
2022/06/25 09:30:16;;;;;;;7.18;2.35;;;;;;;28.18;27.69;99868.75;4203762;28;20235;-71
2022/06/25 09:32:45;;;;;;;5.10;2.30;;;;;;;28.37;28.03;99859.97;4219802;28;20786;-70
2022/06/25 09:35:36;;;;;;;4.03;2.17;;;;;;;28.46;27.92;99862.97;4219097;28;20275;-72
2022/06/25 09:38:04;;;;;;;4.72;2.58;;;;;;;28.71;27.96;99862.09;4250031;28;20239;-69
2022/06/25 09:40:31;;;;;;;8.52;2.50;;;;;;;28.77;28.18;99872.72;4232237;28;20331;-69
2022/06/25 09:42:58;;;;;;;4.88;2.35;;;;;;;28.79;27.48;99867.00;4209615;28;21558;-69
2022/06/25 09:45:25;;;;;;;3.00;2.05;;;;;;;28.46;27.04;99861.06;4206458;28;21738;-69
2022/06/25 09:47:54;;;;;;;6.30;2.55;;;;;;;28.39;27.73;99866.81;4233773;28;25031;-71
2022/06/25 09:50:21;;;;;;;4.82;2.50;;;;;;;28.56;26.92;99866.50;4209338;28;21224;-71
2022/06/25 09:52:52;;;;;;;4.10;2.58;;;;;;;28.70;27.42;99866.75;4216315;28;20224;-73
2022/06/25 09:55:20;;;;;;;6.75;3.00;;;;;;;28.59;27.00;99859.69;4241646;28;20624;-73
2022/06/25 09:57:47;;;;;;;5.82;2.25;;;;;;;28.57;26.68;99861.88;4195375;28;22913;-70
2022/06/25 10:00:17;;;;;;;5.80;2.15;;;;;;;28.28;27.07;99861.63;4211162;28;25320;-72
2022/06/25 10:02:45;;;;;;;5.57;2.40;;;;;;;28.51;27.39;99863.78;4209291;28;20237;-72
2022/06/25 10:05:15;;;;;;;3.17;2.03;;;;;;;28.45;26.79;99864.88;4211624;28;20601;-70
2022/06/25 10:08:01;;;;;;;4.90;1.98;;;;;;;28.46;26.74;99850.13;4195834;28;20536;-69
2022/06/25 10:10:30;;;;;;;5.45;2.10;;;;;;;28.13;26.87;99851.53;4200489;28;20238;-71
2022/06/25 10:12:56;;;;;;;3.30;2.25;;;;;;;28.29;27.46;99852.34;4207954;28;20229;-71
2022/06/25 10:15:23;;;;;;;6.35;2.40;;;;;;;28.51;26.87;99857.50;4182609;28;20275;-73
2022/06/25 10:17:51;;;;;;;5.97;2.45;;;;;;;28.40;26.43;99853.94;4209559;28;21614;-71
2022/06/25 10:20:18;;;;;;;2.88;2.20;;;;;;;28.47;26.03;99857.25;4212003;28;20239;-72
2022/06/25 10:22:47;;;;;;;3.95;2.20;;;;;;;28.45;25.97;99847.63;4210401;28;20236;-71
2022/06/25 10:25:17;;;;;;;4.93;2.33;;;;;;;28.10;26.09;99852.91;4211230;28;20527;-68
2022/06/25 10:27:46;;;;;;;4.40;2.20;;;;;;;27.95;26.95;99839.25;4211742;28;20239;-52
2022/06/25 10:30:15;;;;;;;5.05;2.25;;;;;;;27.85;27.92;99834.59;4206039;28;20245;-70
2022/06/25 10:32:47;;;;;;;4.50;2.33;;;;;;;27.97;27.76;99837.06;4218317;28;21564;-67
2022/06/25 10:35:33;;;;;;;2.75;1.98;;;;;;;27.93;28.46;99833.22;4221934;28;20239;-67
2022/06/25 10:38:02;;;;;;;3.28;2.13;;;;;;;27.97;28.91;99848.00;4210543;28;20236;-66
2022/06/25 10:40:31;;;;;;;4.72;2.10;;;;;;;27.98;27.71;99838.72;4200094;28;22373;-68
2022/06/25 10:43:01;;;;;;;3.28;2.35;;;;;;;28.18;28.30;99830.44;4215724;28;20240;-67
2022/06/25 10:45:31;;;;;;;4.40;2.00;;;;;;;28.21;27.62;99829.06;4214018;28;20233;-66
2022/06/25 10:47:58;;;;;;;6.10;2.30;;;;;;;28.18;27.48;99824.97;4210044;28;20355;-68
2022/06/25 10:50:25;;;;;;;2.35;2.10;;;;;;;28.39;27.01;99824.94;4215900;28;20793;-64
2022/06/25 10:53:04;;;;;;;3.97;2.22;;;;;;;28.68;26.00;99829.78;4214523;28;20228;-67
2022/06/25 10:55:49;;;;;;;3.83;2.00;;;;;;;28.82;26.43;99825.34;4221587;28;21307;-67
2022/06/25 10:58:18;;;;;;;4.67;2.47;;;;;;;28.38;26.83;99815.09;4214669;28;20585;-65
2022/06/25 11:00:51;;;;;;;7.88;2.35;;;;;;;28.54;26.92;99819.44;4220673;28;20425;-66
2022/06/25 11:03:37;;;;;;;8.55;2.20;;;;;;;28.61;26.22;99822.72;4220821;28;20229;-66
2022/06/25 11:06:24;;;;;;;5.82;2.20;;;;;;;28.78;26.19;99832.50;4206912;28;20601;-65
2022/06/25 11:08:51;;;;;;;4.15;2.50;;;;;;;28.62;26.22;99827.06;4210005;28;20287;-65
2022/06/25 11:11:27;;;;;;;5.85;2.25;;;;;;;28.85;26.00;99830.28;4208954;28;21909;-66
2022/06/25 11:13:54;;;;;;;5.22;2.13;;;;;;;28.95;26.09;99818.44;4203274;28;20384;-67
2022/06/25 11:16:22;;;;;;;3.60;2.13;;;;;;;28.91;27.25;99812.69;4207304;28;21794;-67
2022/06/25 11:18:54;;;;;;;5.97;2.40;;;;;;;28.94;27.15;99823.09;4228389;28;20240;-66
2022/06/25 11:21:35;;;;;;;6.25;2.30;;;;;;;29.19;27.28;99818.59;4210329;28;25253;-66
2022/06/25 11:24:13;;;;;;;5.53;2.05;;;;;;;29.08;27.64;99822.50;4225224;28;20346;-67
2022/06/25 11:29:36;;;;;;;4.90;2.40;;;;;;;28.79;26.79;99820.44;4213968;28;21611;-66
2022/06/25 11:32:03;;;;;;;3.17;2.35;;;;;;;28.85;26.99;99813.03;4223382;28;21316;-66
2022/06/25 11:34:34;;;;;;;4.90;2.60;;;;;;;29.10;26.03;99826.59;4220814;28;20248;-65
2022/06/25 11:37:12;;;;;;;3.63;2.63;;;;;;;29.11;26.83;99821.94;4226001;28;20247;-70
2022/06/25 11:39:41;;;;;;;4.28;2.20;;;;;;;29.20;27.42;99825.72;4223648;28;20246;-66
2022/06/25 11:42:09;;;;;;;4.20;2.00;;;;;;;29.45;27.25;99825.56;4217571;28;20230;-67
2022/06/25 11:44:44;;;;;;;4.40;2.17;;;;;;;29.55;25.97;99819.19;4210750;28;20342;-65
2022/06/25 11:47:17;;;;;;;4.47;2.33;;;;;;;29.55;26.42;99819.19;4218164;28;21206;-64
2022/06/25 11:49:45;;;;;;;8.95;3.03;;;;;;;29.29;26.28;99824.03;4224533;28;20365;-66
2022/06/25 11:52:13;;;;;;;5.40;2.38;;;;;;;29.33;26.89;99819.59;4211365;28;26634;-65
2022/06/25 11:54:41;;;;;;;3.00;2.20;;;;;;;29.37;26.93;99815.19;4213129;28;20232;-65
2022/06/25 11:57:10;;;;;;;4.93;2.60;;;;;;;29.58;27.78;99823.28;4220213;28;20291;-66
2022/06/25 11:59:39;;;;;;;5.72;2.70;;;;;;;30.04;26.04;99817.38;4203333;28;20229;-65